TAF and METAR

METAR for Inca Manco Capac Airport

SPJL 180000Z 13008KT 9999 SCT020 12/M01 Q1031 RMK PP000
Report created 18. nov 01:00
wind 8 knots from SE (130°) visibility > 10km scattered clouds (~50% cover) at 2000 feet Temperature 12° with dewpoint at -1° (Humidity 40.54%) Pressure 1031 hPa

TAF for Inca Manco Capac Airport

TAF SPJL 171700Z 1718/1818 11012KT CAVOK TX17/1718Z TN02/1810 FM180000 15006KT 9999 SCT020
Report created 17. nov 18:00

between 17. nov 19:00 - 18. nov 19:00

wind 12 knots from ESE (110°) Clear sky Max temperature 17° expected today at around 19 o'clock